sensor_id;sensor_type;location;lat;lon;timestamp;pressure;altitude;pressure_sealevel;temperature;humidity
23229;BME280;11783;50.350;6.576;2023-05-14T00:01:40;96468.66;;;9.40;91.87
23229;BME280;11783;50.350;6.576;2023-05-14T00:04:05;96467.16;;;9.32;91.89
23229;BME280;11783;50.350;6.576;2023-05-14T00:06:30;96469.91;;;9.26;92.36
23229;BME280;11783;50.350;6.576;2023-05-14T00:08:56;96468.97;;;9.20;92.52
23229;BME280;11783;50.350;6.576;2023-05-14T00:11:21;96456.06;;;9.12;92.25
23229;BME280;11783;50.350;6.576;2023-05-14T00:13:48;96457.31;;;9.09;92.39
23229;BME280;11783;50.350;6.576;2023-05-14T00:16:14;96458.00;;;9.05;92.66
23229;BME280;11783;50.350;6.576;2023-05-14T00:18:40;96463.53;;;9.03;92.49
23229;BME280;11783;50.350;6.576;2023-05-14T00:21:06;96461.09;;;9.02;93.10
23229;BME280;11783;50.350;6.576;2023-05-14T00:23:31;96458.91;;;8.99;93.14
23229;BME280;11783;50.350;6.576;2023-05-14T00:25:56;96452.56;;;9.00;92.97
23229;BME280;11783;50.350;6.576;2023-05-14T00:28:22;96442.78;;;9.00;93.19
23229;BME280;11783;50.350;6.576;2023-05-14T00:30:47;96451.19;;;8.97;93.52
23229;BME280;11783;50.350;6.576;2023-05-14T00:33:12;96450.47;;;8.90;93.23
23229;BME280;11783;50.350;6.576;2023-05-14T00:35:38;96444.47;;;8.83;93.28
23229;BME280;11783;50.350;6.576;2023-05-14T00:38:03;96441.69;;;8.78;93.05
23229;BME280;11783;50.350;6.576;2023-05-14T00:40:29;96442.16;;;8.75;93.08
23229;BME280;11783;50.350;6.576;2023-05-14T00:42:55;96432.19;;;8.70;92.58
23229;BME280;11783;50.350;6.576;2023-05-14T00:45:21;96432.19;;;8.59;92.09
23229;BME280;11783;50.350;6.576;2023-05-14T00:47:47;96428.66;;;8.46;92.37
23229;BME280;11783;50.350;6.576;2023-05-14T00:50:13;96439.63;;;8.32;93.10
23229;BME280;11783;50.350;6.576;2023-05-14T00:52:40;96434.88;;;8.22;93.59
23229;BME280;11783;50.350;6.576;2023-05-14T00:55:06;96437.22;;;8.12;94.57
23229;BME280;11783;50.350;6.576;2023-05-14T00:57:33;96435.91;;;8.03;94.96
23229;BME280;11783;50.350;6.576;2023-05-14T00:59:58;96439.06;;;7.93;96.02
23229;BME280;11783;50.350;6.576;2023-05-14T01:02:24;96434.88;;;7.85;95.83
23229;BME280;11783;50.350;6.576;2023-05-14T01:04:50;96435.34;;;7.82;96.39
23229;BME280;11783;50.350;6.576;2023-05-14T01:10:31;96434.88;;;7.67;97.77
23229;BME280;11783;50.350;6.576;2023-05-14T01:13:27;96429.84;;;7.59;98.47
23229;BME280;11783;50.350;6.576;2023-05-14T01:15:57;96434.84;;;7.49;98.52
23229;BME280;11783;50.350;6.576;2023-05-14T01:18:25;96431.03;;;7.45;98.79
23229;BME280;11783;50.350;6.576;2023-05-14T01:20:52;96423.72;;;7.40;99.01
23229;BME280;11783;50.350;6.576;2023-05-14T01:23:18;96430.28;;;7.38;99.55
23229;BME280;11783;50.350;6.576;2023-05-14T01:25:44;96424.41;;;7.36;99.22
23229;BME280;11783;50.350;6.576;2023-05-14T01:28:22;96423.00;;;7.33;99.34
23229;BME280;11783;50.350;6.576;2023-05-14T01:30:57;96423.44;;;7.30;99.12
23229;BME280;11783;50.350;6.576;2023-05-14T01:33:28;96418.19;;;7.23;99.37
23229;BME280;11783;50.350;6.576;2023-05-14T01:35:53;96417.00;;;7.19;99.58
23229;BME280;11783;50.350;6.576;2023-05-14T01:38:20;96418.47;;;7.15;100.00
23229;BME280;11783;50.350;6.576;2023-05-14T01:40:46;96422.38;;;7.13;99.51
23229;BME280;11783;50.350;6.576;2023-05-14T01:43:12;96415.09;;;7.08;100.00
23229;BME280;11783;50.350;6.576;2023-05-14T01:45:39;96422.22;;;7.08;100.00
23229;BME280;11783;50.350;6.576;2023-05-14T01:48:04;96413.88;;;7.04;99.56
23229;BME280;11783;50.350;6.576;2023-05-14T01:50:30;96419.00;;;6.99;99.49
23229;BME280;11783;50.350;6.576;2023-05-14T01:52:55;96420.09;;;6.91;100.00
23229;BME280;11783;50.350;6.576;2023-05-14T01:55:21;96418.28;;;6.85;100.00
23229;BME280;11783;50.350;6.576;2023-05-14T01:57:50;96414.47;;;6.81;99.88
23229;BME280;11783;50.350;6.576;2023-05-14T02:00:16;96413.72;;;6.74;100.00
23229;BME280;11783;50.350;6.576;2023-05-14T02:02:42;96406.44;;;6.70;100.00
23229;BME280;11783;50.350;6.576;2023-05-14T02:05:08;96410.50;;;6.65;100.00
23229;BME280;11783;50.350;6.576;2023-05-14T02:07:34;96414.38;;;6.70;100.00
23229;BME280;11783;50.350;6.576;2023-05-14T02:09:59;96417.16;;;6.75;100.00
23229;BME280;11783;50.350;6.576;2023-05-14T02:12:24;96409.84;;;6.77;99.75
23229;BME280;11783;50.350;6.576;2023-05-14T02:14:50;96406.97;;;6.78;99.39
23229;BME280;11783;50.350;6.576;2023-05-14T02:17:15;96400.09;;;6.77;99.72
23229;BME280;11783;50.350;6.576;2023-05-14T02:19:44;96404.56;;;6.77;99.50
23229;BME280;11783;50.350;6.576;2023-05-14T02:22:10;96400.31;;;6.76;99.54
23229;BME280;11783;50.350;6.576;2023-05-14T02:24:36;96399.72;;;6.74;99.19
23229;BME280;11783;50.350;6.576;2023-05-14T02:27:01;96396.25;;;6.73;99.73
23229;BME280;11783;50.350;6.576;2023-05-14T02:29:26;96393.25;;;6.70;99.19
23229;BME280;11783;50.350;6.576;2023-05-14T02:31:52;96400.53;;;6.67;99.85
23229;BME280;11783;50.350;6.576;2023-05-14T02:34:17;96397.75;;;6.62;100.00
23229;BME280;11783;50.350;6.576;2023-05-14T02:36:42;96390.31;;;6.53;99.90
23229;BME280;11783;50.350;6.576;2023-05-14T02:39:08;96390.31;;;6.46;100.00
23229;BME280;11783;50.350;6.576;2023-05-14T02:41:33;96389.16;;;6.42;100.00
23229;BME280;11783;50.350;6.576;2023-05-14T02:43:58;96383.47;;;6.38;100.00
23229;BME280;11783;50.350;6.576;2023-05-14T02:46:24;96385.97;;;6.33;100.00
23229;BME280;11783;50.350;6.576;2023-05-14T02:48:49;96383.34;;;6.27;100.00
23229;BME280;11783;50.350;6.576;2023-05-14T02:51:15;96380.31;;;6.23;100.00
23229;BME280;11783;50.350;6.576;2023-05-14T02:53:40;96369.81;;;6.17;100.00
23229;BME280;11783;50.350;6.576;2023-05-14T02:56:06;96373.28;;;6.11;100.00
23229;BME280;11783;50.350;6.576;2023-05-14T02:58:32;96373.69;;;6.07;100.00
23229;BME280;11783;50.350;6.576;2023-05-14T03:00:57;96375.75;;;6.05;100.00
23229;BME280;11783;50.350;6.576;2023-05-14T03:03:23;96375.34;;;6.02;100.00
23229;BME280;11783;50.350;6.576;2023-05-14T03:05:48;96385.53;;;5.98;100.00
23229;BME280;11783;50.350;6.576;2023-05-14T03:08:14;96380.69;;;5.95;100.00
23229;BME280;11783;50.350;6.576;2023-05-14T03:10:39;96385.94;;;5.95;100.00
23229;BME280;11783;50.350;6.576;2023-05-14T03:13:05;96373.16;;;5.92;100.00
23229;BME280;11783;50.350;6.576;2023-05-14T03:15:30;96379.66;;;5.90;100.00
23229;BME280;11783;50.350;6.576;2023-05-14T03:17:55;96376.00;;;5.91;100.00
23229;BME280;11783;50.350;6.576;2023-05-14T03:20:23;96377.84;;;5.90;100.00
23229;BME280;11783;50.350;6.576;2023-05-14T03:22:48;96376.19;;;5.89;100.00
23229;BME280;11783;50.350;6.576;2023-05-14T03:25:14;96370.09;;;5.89;100.00
23229;BME280;11783;50.350;6.576;2023-05-14T03:27:39;96376.00;;;5.91;100.00
23229;BME280;11783;50.350;6.576;2023-05-14T03:30:05;96373.56;;;5.89;100.00
23229;BME280;11783;50.350;6.576;2023-05-14T03:32:31;96369.28;;;5.88;100.00
23229;BME280;11783;50.350;6.576;2023-05-14T03:34:56;96368.09;;;5.84;100.00
23229;BME280;11783;50.350;6.576;2023-05-14T03:37:22;96366.69;;;5.82;100.00
23229;BME280;11783;50.350;6.576;2023-05-14T03:39:47;96365.88;;;5.81;100.00
23229;BME280;11783;50.350;6.576;2023-05-14T03:42:12;96360.84;;;5.73;100.00
23229;BME280;11783;50.350;6.576;2023-05-14T03:44:38;96358.63;;;5.70;100.00
23229;BME280;11783;50.350;6.576;2023-05-14T03:47:03;96359.63;;;5.69;100.00
23229;BME280;11783;50.350;6.576;2023-05-14T03:49:29;96357.22;;;5.67;100.00
23229;BME280;11783;50.350;6.576;2023-05-14T03:51:54;96352.38;;;5.64;100.00
23229;BME280;11783;50.350;6.576;2023-05-14T03:54:20;96351.97;;;5.61;100.00
23229;BME280;11783;50.350;6.576;2023-05-14T03:56:45;96352.56;;;5.63;100.00
23229;BME280;11783;50.350;6.576;2023-05-14T03:59:10;96349.13;;;5.62;100.00
23229;BME280;11783;50.350;6.576;2023-05-14T04:01:36;96350.16;;;5.61;100.00
23229;BME280;11783;50.350;6.576;2023-05-14T04:04:01;96346.69;;;5.61;100.00
23229;BME280;11783;50.350;6.576;2023-05-14T04:06:26;96346.91;;;5.59;100.00
23229;BME280;11783;50.350;6.576;2023-05-14T04:08:51;96340.03;;;5.58;100.00
23229;BME280;11783;50.350;6.576;2023-05-14T04:11:17;96345.69;;;5.55;100.00
23229;BME280;11783;50.350;6.576;2023-05-14T04:13:43;96345.91;;;5.54;100.00
23229;BME280;11783;50.350;6.576;2023-05-14T04:16:08;96352.41;;;5.51;100.00
23229;BME280;11783;50.350;6.576;2023-05-14T04:18:33;96349.97;;;5.50;100.00
23229;BME280;11783;50.350;6.576;2023-05-14T04:21:00;96352.81;;;5.48;100.00
23229;BME280;11783;50.350;6.576;2023-05-14T04:23:26;96344.31;;;5.46;100.00
23229;BME280;11783;50.350;6.576;2023-05-14T04:25:51;96347.34;;;5.50;100.00
23229;BME280;11783;50.350;6.576;2023-05-14T04:28:16;96349.56;;;5.53;100.00
23229;BME280;11783;50.350;6.576;2023-05-14T04:30:42;96359.28;;;5.52;100.00
23229;BME280;11783;50.350;6.576;2023-05-14T04:33:07;96349.97;;;5.50;100.00
23229;BME280;11783;50.350;6.576;2023-05-14T04:35:32;96348.34;;;5.48;100.00
23229;BME280;11783;50.350;6.576;2023-05-14T04:37:58;96356.47;;;5.47;100.00
23229;BME280;11783;50.350;6.576;2023-05-14T04:40:23;96346.56;;;5.42;100.00
23229;BME280;11783;50.350;6.576;2023-05-14T04:42:48;96351.22;;;5.40;100.00
23229;BME280;11783;50.350;6.576;2023-05-14T04:45:14;96354.03;;;5.39;100.00
23229;BME280;11783;50.350;6.576;2023-05-14T04:47:40;96353.25;;;5.38;100.00
23229;BME280;11783;50.350;6.576;2023-05-14T04:50:06;96347.97;;;5.38;100.00
23229;BME280;11783;50.350;6.576;2023-05-14T04:52:34;96346.13;;;5.39;100.00
23229;BME280;11783;50.350;6.576;2023-05-14T04:54:59;96346.56;;;5.36;100.00
23229;BME280;11783;50.350;6.576;2023-05-14T04:57:25;96353.66;;;5.35;100.00
23229;BME280;11783;50.350;6.576;2023-05-14T04:59:50;96346.78;;;5.34;100.00
23229;BME280;11783;50.350;6.576;2023-05-14T05:02:16;96346.16;;;5.32;100.00
23229;BME280;11783;50.350;6.576;2023-05-14T05:04:41;96350.63;;;5.32;100.00
23229;BME280;11783;50.350;6.576;2023-05-14T05:07:06;96346.16;;;5.32;100.00
23229;BME280;11783;50.350;6.576;2023-05-14T05:09:32;96348.00;;;5.32;100.00
23229;BME280;11783;50.350;6.576;2023-05-14T05:11:57;96352.03;;;5.34;100.00
23229;BME280;11783;50.350;6.576;2023-05-14T05:14:22;96343.13;;;5.42;100.00
23229;BME280;11783;50.350;6.576;2023-05-14T05:16:48;96349.78;;;5.44;100.00
23229;BME280;11783;50.350;6.576;2023-05-14T05:19:13;96342.91;;;5.43;100.00
23229;BME280;11783;50.350;6.576;2023-05-14T05:21:39;96344.72;;;5.43;100.00
23229;BME280;11783;50.350;6.576;2023-05-14T05:24:06;96344.53;;;5.44;100.00
23229;BME280;11783;50.350;6.576;2023-05-14T05:26:31;96344.34;;;5.39;100.00
23229;BME280;11783;50.350;6.576;2023-05-14T05:28:56;96346.13;;;5.45;100.00
23229;BME280;11783;50.350;6.576;2023-05-14T05:31:22;96346.34;;;5.44;100.00
23229;BME280;11783;50.350;6.576;2023-05-14T05:33:47;96352.38;;;5.58;100.00
23229;BME280;11783;50.350;6.576;2023-05-14T05:36:13;96351.75;;;5.62;100.00
23229;BME280;11783;50.350;6.576;2023-05-14T05:38:38;96359.47;;;5.64;100.00
23229;BME280;11783;50.350;6.576;2023-05-14T05:41:03;96353.94;;;5.72;100.00
23229;BME280;11783;50.350;6.576;2023-05-14T05:43:29;96348.88;;;5.77;100.00
23229;BME280;11783;50.350;6.576;2023-05-14T05:45:54;96348.63;;;5.85;100.00
23229;BME280;11783;50.350;6.576;2023-05-14T05:48:19;96342.31;;;5.86;100.00
23229;BME280;11783;50.350;6.576;2023-05-14T05:50:46;96342.53;;;5.91;100.00
23229;BME280;11783;50.350;6.576;2023-05-14T05:53:13;96344.34;;;5.97;100.00
23229;BME280;11783;50.350;6.576;2023-05-14T05:55:40;96351.63;;;6.02;100.00
23229;BME280;11783;50.350;6.576;2023-05-14T05:58:06;96344.72;;;6.01;100.00
23229;BME280;11783;50.350;6.576;2023-05-14T06:00:31;96353.41;;;6.08;100.00
23229;BME280;11783;50.350;6.576;2023-05-14T06:02:57;96348.28;;;6.20;100.00
23229;BME280;11783;50.350;6.576;2023-05-14T06:05:22;96352.38;;;6.16;100.00
23229;BME280;11783;50.350;6.576;2023-05-14T06:07:48;96358.41;;;6.23;100.00
23229;BME280;11783;50.350;6.576;2023-05-14T06:10:13;96355.69;;;6.36;100.00
23229;BME280;11783;50.350;6.576;2023-05-14T06:12:38;96354.06;;;6.35;100.00
23229;BME280;11783;50.350;6.576;2023-05-14T06:15:05;96353.25;;;6.34;100.00
23229;BME280;11783;50.350;6.576;2023-05-14T06:17:30;96351.75;;;6.45;100.00
23229;BME280;11783;50.350;6.576;2023-05-14T06:19:56;96352.75;;;6.51;100.00
23229;BME280;11783;50.350;6.576;2023-05-14T06:22:21;96350.63;;;6.59;100.00
23229;BME280;11783;50.350;6.576;2023-05-14T06:24:47;96353.22;;;6.66;100.00
23229;BME280;11783;50.350;6.576;2023-05-14T06:27:12;96344.81;;;6.76;100.00
23229;BME280;11783;50.350;6.576;2023-05-14T06:29:37;96353.66;;;6.88;100.00
23229;BME280;11783;50.350;6.576;2023-05-14T06:32:03;96349.94;;;6.95;100.00
23229;BME280;11783;50.350;6.576;2023-05-14T06:34:30;96342.53;;;7.04;100.00
23229;BME280;11783;50.350;6.576;2023-05-14T06:36:55;96344.09;;;7.12;100.00
23229;BME280;11783;50.350;6.576;2023-05-14T06:39:21;96342.88;;;7.33;100.00
23229;BME280;11783;50.350;6.576;2023-05-14T06:41:47;96345.59;;;7.44;100.00
23229;BME280;11783;50.350;6.576;2023-05-14T06:44:12;96344.06;;;7.55;100.00
23229;BME280;11783;50.350;6.576;2023-05-14T06:46:37;96347.41;;;7.62;100.00
23229;BME280;11783;50.350;6.576;2023-05-14T06:49:03;96351.41;;;7.71;100.00
23229;BME280;11783;50.350;6.576;2023-05-14T06:51:28;96345.59;;;7.81;100.00
23229;BME280;11783;50.350;6.576;2023-05-14T06:53:54;96341.28;;;7.98;100.00
23229;BME280;11783;50.350;6.576;2023-05-14T06:56:20;96338.81;;;8.15;100.00
23229;BME280;11783;50.350;6.576;2023-05-14T06:58:46;96341.53;;;8.27;100.00
23229;BME280;11783;50.350;6.576;2023-05-14T07:01:11;96344.50;;;8.48;100.00
23229;BME280;11783;50.350;6.576;2023-05-14T07:03:37;96334.75;;;8.61;100.00
23229;BME280;11783;50.350;6.576;2023-05-14T07:06:02;96335.69;;;8.78;100.00
23229;BME280;11783;50.350;6.576;2023-05-14T07:08:27;96338.56;;;8.88;100.00
23229;BME280;11783;50.350;6.576;2023-05-14T07:10:53;96333.97;;;8.95;100.00
23229;BME280;11783;50.350;6.576;2023-05-14T07:13:18;96338.47;;;9.06;100.00
23229;BME280;11783;50.350;6.576;2023-05-14T07:15:43;96337.63;;;9.29;100.00
23229;BME280;11783;50.350;6.576;2023-05-14T07:18:09;96335.78;;;9.41;100.00
23229;BME280;11783;50.350;6.576;2023-05-14T07:20:34;96342.81;;;9.59;100.00
23229;BME280;11783;50.350;6.576;2023-05-14T07:22:59;96342.19;;;9.81;100.00
23229;BME280;11783;50.350;6.576;2023-05-14T07:25:27;96328.94;;;10.09;100.00
23229;BME280;11783;50.350;6.576;2023-05-14T07:27:53;96332.25;;;10.28;100.00
23229;BME280;11783;50.350;6.576;2023-05-14T07:30:18;96327.44;;;10.42;100.00
23229;BME280;11783;50.350;6.576;2023-05-14T07:32:43;96327.78;;;10.62;100.00
23229;BME280;11783;50.350;6.576;2023-05-14T07:35:09;96328.69;;;10.84;100.00
23229;BME280;11783;50.350;6.576;2023-05-14T07:37:36;96319.41;;;11.04;100.00
23229;BME280;11783;50.350;6.576;2023-05-14T07:40:01;96329.59;;;11.29;100.00
23229;BME280;11783;50.350;6.576;2023-05-14T07:42:26;96324.63;;;11.54;100.00
23229;BME280;11783;50.350;6.576;2023-05-14T07:44:52;96332.16;;;11.79;100.00
23229;BME280;11783;50.350;6.576;2023-05-14T07:47:17;96322.03;;;12.03;100.00
23229;BME280;11783;50.350;6.576;2023-05-14T07:49:43;96321.84;;;12.31;100.00
23229;BME280;11783;50.350;6.576;2023-05-14T07:52:08;96322.28;;;12.50;100.00
23229;BME280;11783;50.350;6.576;2023-05-14T07:54:33;96323.28;;;12.76;100.00
23229;BME280;11783;50.350;6.576;2023-05-14T07:56:59;96321.66;;;13.02;100.00
23229;BME280;11783;50.350;6.576;2023-05-14T07:59:24;96319.44;;;13.26;100.00
23229;BME280;11783;50.350;6.576;2023-05-14T08:01:50;96312.09;;;13.53;100.00
23229;BME280;11783;50.350;6.576;2023-05-14T08:04:15;96315.19;;;13.77;100.00
23229;BME280;11783;50.350;6.576;2023-05-14T08:06:41;96318.72;;;13.98;100.00
23229;BME280;11783;50.350;6.576;2023-05-14T08:09:06;96316.63;;;14.10;100.00
23229;BME280;11783;50.350;6.576;2023-05-14T08:11:33;96307.03;;;14.24;100.00
23229;BME280;11783;50.350;6.576;2023-05-14T08:13:58;96309.75;;;14.35;93.00
23229;BME280;11783;50.350;6.576;2023-05-14T08:16:23;96308.44;;;14.47;92.95
23229;BME280;11783;50.350;6.576;2023-05-14T08:18:50;96312.22;;;14.67;98.27
23229;BME280;11783;50.350;6.576;2023-05-14T08:21:16;96312.75;;;14.84;93.70
23229;BME280;11783;50.350;6.576;2023-05-14T08:23:41;96312.75;;;15.04;98.99
23229;BME280;11783;50.350;6.576;2023-05-14T08:26:07;96304.97;;;15.23;92.78
23229;BME280;11783;50.350;6.576;2023-05-14T08:28:32;96312.16;;;15.48;89.98
23229;BME280;11783;50.350;6.576;2023-05-14T08:30:58;96305.41;;;15.71;85.73
23229;BME280;11783;50.350;6.576;2023-05-14T08:33:23;96306.72;;;15.84;75.52
23229;BME280;11783;50.350;6.576;2023-05-14T08:35:52;96303.97;;;15.94;78.63
23229;BME280;11783;50.350;6.576;2023-05-14T08:38:17;96295.38;;;16.02;81.41
23229;BME280;11783;50.350;6.576;2023-05-14T08:40:47;96308.16;;;16.15;77.80
23229;BME280;11783;50.350;6.576;2023-05-14T08:43:17;96293.34;;;16.28;75.05
23229;BME280;11783;50.350;6.576;2023-05-14T08:45:45;96296.22;;;16.42;78.77
23229;BME280;11783;50.350;6.576;2023-05-14T08:48:12;96301.00;;;16.50;73.80
23229;BME280;11783;50.350;6.576;2023-05-14T08:50:40;96302.75;;;16.70;69.70
23229;BME280;11783;50.350;6.576;2023-05-14T08:53:05;96299.38;;;16.93;72.47
23229;BME280;11783;50.350;6.576;2023-05-14T08:55:30;96294.13;;;17.07;72.32
23229;BME280;11783;50.350;6.576;2023-05-14T08:57:57;96298.28;;;17.23;74.40
23229;BME280;11783;50.350;6.576;2023-05-14T09:00:23;96297.72;;;17.26;67.22
23229;BME280;11783;50.350;6.576;2023-05-14T09:02:49;96300.91;;;17.33;68.34
23229;BME280;11783;50.350;6.576;2023-05-14T09:05:16;96295.47;;;17.38;66.08
23229;BME280;11783;50.350;6.576;2023-05-14T09:07:42;96299.47;;;17.41;63.30
23229;BME280;11783;50.350;6.576;2023-05-14T09:10:08;96298.09;;;17.43;68.42
23229;BME280;11783;50.350;6.576;2023-05-14T09:12:33;96298.66;;;17.64;61.96
23229;BME280;11783;50.350;6.576;2023-05-14T09:14:58;96290.97;;;17.81;68.20
23229;BME280;11783;50.350;6.576;2023-05-14T09:17:25;96289.16;;;17.77;66.51
23229;BME280;11783;50.350;6.576;2023-05-14T09:19:52;96289.09;;;17.82;67.87
23229;BME280;11783;50.350;6.576;2023-05-14T09:22:18;96294.50;;;18.01;64.28
23229;BME280;11783;50.350;6.576;2023-05-14T09:24:44;96293.22;;;18.17;64.93
23229;BME280;11783;50.350;6.576;2023-05-14T09:27:17;96295.50;;;18.29;63.87
23229;BME280;11783;50.350;6.576;2023-05-14T09:29:43;96294.31;;;18.35;66.80
23229;BME280;11783;50.350;6.576;2023-05-14T09:32:08;96291.00;;;18.43;68.62
23229;BME280;11783;50.350;6.576;2023-05-14T09:34:35;96289.81;;;18.49;63.40
23229;BME280;11783;50.350;6.576;2023-05-14T09:37:05;96283.06;;;18.52;64.68
23229;BME280;11783;50.350;6.576;2023-05-14T09:39:31;96284.34;;;18.54;63.24
23229;BME280;11783;50.350;6.576;2023-05-14T09:41:57;96285.75;;;18.52;61.09
23229;BME280;11783;50.350;6.576;2023-05-14T09:44:23;96284.56;;;18.39;61.88
23229;BME280;11783;50.350;6.576;2023-05-14T09:46:49;96279.34;;;18.48;67.08
23229;BME280;11783;50.350;6.576;2023-05-14T09:49:15;96280.56;;;18.55;62.02
23229;BME280;11783;50.350;6.576;2023-05-14T09:51:40;96283.44;;;18.64;58.41
23229;BME280;11783;50.350;6.576;2023-05-14T09:54:06;96283.16;;;18.65;59.74
23229;BME280;11783;50.350;6.576;2023-05-14T09:56:32;96281.16;;;18.71;59.06
23229;BME280;11783;50.350;6.576;2023-05-14T09:58:58;96278.28;;;18.67;55.73
23229;BME280;11783;50.350;6.576;2023-05-14T10:01:24;96273.75;;;18.82;60.30
23229;BME280;11783;50.350;6.576;2023-05-14T10:03:52;96274.16;;;18.89;56.88
23229;BME280;11783;50.350;6.576;2023-05-14T10:06:21;96272.41;;;19.12;57.18
23229;BME280;11783;50.350;6.576;2023-05-14T10:08:48;96273.66;;;18.87;49.30
23229;BME280;11783;50.350;6.576;2023-05-14T10:11:19;96272.25;;;18.89;53.92
23229;BME280;11783;50.350;6.576;2023-05-14T10:13:50;96272.56;;;18.88;55.56
23229;BME280;11783;50.350;6.576;2023-05-14T10:16:23;96271.97;;;18.91;48.71
23229;BME280;11783;50.350;6.576;2023-05-14T10:18:51;96261.53;;;19.03;48.73
23229;BME280;11783;50.350;6.576;2023-05-14T10:21:21;96263.00;;;18.95;51.96
23229;BME280;11783;50.350;6.576;2023-05-14T10:23:47;96258.34;;;19.01;57.24
23229;BME280;11783;50.350;6.576;2023-05-14T10:26:13;96261.88;;;19.15;56.44
23229;BME280;11783;50.350;6.576;2023-05-14T10:28:40;96260.28;;;19.28;53.02
23229;BME280;11783;50.350;6.576;2023-05-14T10:31:08;96257.19;;;19.48;56.53
23229;BME280;11783;50.350;6.576;2023-05-14T10:33:45;96260.53;;;19.59;53.17
23229;BME280;11783;50.350;6.576;2023-05-14T10:36:11;96254.13;;;19.69;51.46
23229;BME280;11783;50.350;6.576;2023-05-14T10:38:37;96253.63;;;19.66;49.55
23229;BME280;11783;50.350;6.576;2023-05-14T10:43:30;96249.16;;;19.62;50.09
23229;BME280;11783;50.350;6.576;2023-05-14T10:45:57;96251.06;;;19.75;50.56
23229;BME280;11783;50.350;6.576;2023-05-14T10:48:23;96255.66;;;19.75;46.98
23229;BME280;11783;50.350;6.576;2023-05-14T10:50:52;96252.84;;;19.66;45.45
23229;BME280;11783;50.350;6.576;2023-05-14T10:53:18;96245.06;;;19.64;46.02
23229;BME280;11783;50.350;6.576;2023-05-14T10:55:44;96245.38;;;19.77;50.78
23229;BME280;11783;50.350;6.576;2023-05-14T10:58:10;96250.16;;;19.80;47.35
23229;BME280;11783;50.350;6.576;2023-05-14T11:00:37;96250.22;;;20.02;50.13
23229;BME280;11783;50.350;6.576;2023-05-14T11:03:04;96243.09;;;20.06;45.00
23229;BME280;11783;50.350;6.576;2023-05-14T11:05:30;96239.06;;;20.31;49.02
23229;BME280;11783;50.350;6.576;2023-05-14T11:07:56;96246.34;;;20.44;50.72
23229;BME280;11783;50.350;6.576;2023-05-14T11:10:23;96233.72;;;20.53;46.22
23229;BME280;11783;50.350;6.576;2023-05-14T11:12:50;96237.97;;;20.46;42.83
23229;BME280;11783;50.350;6.576;2023-05-14T11:15:21;96242.00;;;20.57;48.03
23229;BME280;11783;50.350;6.576;2023-05-14T11:17:47;96240.59;;;20.60;47.51
23229;BME280;11783;50.350;6.576;2023-05-14T11:20:13;96233.75;;;20.62;41.96
23229;BME280;11783;50.350;6.576;2023-05-14T11:22:40;96235.66;;;20.62;43.23
23229;BME280;11783;50.350;6.576;2023-05-14T11:25:07;96228.56;;;20.66;48.91
23229;BME280;11783;50.350;6.576;2023-05-14T11:27:33;96241.31;;;20.74;47.45
23229;BME280;11783;50.350;6.576;2023-05-14T11:30:00;96236.78;;;20.61;42.31
23229;BME280;11783;50.350;6.576;2023-05-14T11:32:26;96232.13;;;20.75;45.24
23229;BME280;11783;50.350;6.576;2023-05-14T11:34:52;96226.69;;;20.97;45.34
23229;BME280;11783;50.350;6.576;2023-05-14T11:37:17;96225.81;;;21.10;46.28
23229;BME280;11783;50.350;6.576;2023-05-14T11:39:49;96222.19;;;21.15;42.63
23229;BME280;11783;50.350;6.576;2023-05-14T11:42:16;96225.06;;;21.18;42.54
23229;BME280;11783;50.350;6.576;2023-05-14T11:44:44;96223.56;;;21.35;45.59
23229;BME280;11783;50.350;6.576;2023-05-14T11:47:10;96219.19;;;21.56;42.91
23229;BME280;11783;50.350;6.576;2023-05-14T11:49:36;96222.09;;;21.68;43.38
23229;BME280;11783;50.350;6.576;2023-05-14T11:52:04;96210.47;;;21.59;38.74
23229;BME280;11783;50.350;6.576;2023-05-14T11:54:30;96217.34;;;21.26;35.20
23229;BME280;11783;50.350;6.576;2023-05-14T11:56:57;96210.97;;;20.99;40.63
23229;BME280;11783;50.350;6.576;2023-05-14T11:59:27;96204.94;;;21.25;41.49
23229;BME280;11783;50.350;6.576;2023-05-14T12:01:54;96203.22;;;21.37;43.46
23229;BME280;11783;50.350;6.576;2023-05-14T12:04:20;96212.06;;;21.60;38.11
23229;BME280;11783;50.350;6.576;2023-05-14T12:06:47;96210.38;;;21.33;41.16
23229;BME280;11783;50.350;6.576;2023-05-14T12:09:15;96198.50;;;21.52;40.72
23229;BME280;11783;50.350;6.576;2023-05-14T12:11:42;96197.28;;;21.66;38.72
23229;BME280;11783;50.350;6.576;2023-05-14T12:14:21;96198.44;;;21.83;41.30
23229;BME280;11783;50.350;6.576;2023-05-14T12:16:48;96195.09;;;21.86;39.77
23229;BME280;11783;50.350;6.576;2023-05-14T12:19:15;96190.81;;;21.85;34.97
23229;BME280;11783;50.350;6.576;2023-05-14T12:21:46;96206.31;;;22.10;36.77
23229;BME280;11783;50.350;6.576;2023-05-14T12:24:16;96195.13;;;21.94;33.25
23229;BME280;11783;50.350;6.576;2023-05-14T12:26:46;96198.75;;;21.90;38.40
23229;BME280;11783;50.350;6.576;2023-05-14T12:29:13;96192.41;;;21.77;36.92
23229;BME280;11783;50.350;6.576;2023-05-14T12:31:47;96187.63;;;21.83;37.00
23229;BME280;11783;50.350;6.576;2023-05-14T12:34:13;96191.03;;;22.05;40.01
23229;BME280;11783;50.350;6.576;2023-05-14T12:36:38;96180.69;;;22.16;37.94
23229;BME280;11783;50.350;6.576;2023-05-14T12:39:04;96164.28;;;22.21;38.45
23229;BME280;11783;50.350;6.576;2023-05-14T12:41:30;96169.88;;;22.33;38.44
23229;BME280;11783;50.350;6.576;2023-05-14T12:43:56;96171.28;;;22.40;38.25
23229;BME280;11783;50.350;6.576;2023-05-14T12:46:21;96168.56;;;22.40;35.30
23229;BME280;11783;50.350;6.576;2023-05-14T12:48:47;96174.00;;;22.40;38.24
23229;BME280;11783;50.350;6.576;2023-05-14T12:51:12;96178.78;;;22.34;39.08
23229;BME280;11783;50.350;6.576;2023-05-14T12:53:38;96170.47;;;22.30;39.08
23229;BME280;11783;50.350;6.576;2023-05-14T12:56:03;96171.44;;;22.09;38.27
23229;BME280;11783;50.350;6.576;2023-05-14T12:58:29;96167.00;;;22.13;41.08
23229;BME280;11783;50.350;6.576;2023-05-14T13:00:55;96157.25;;;22.12;41.12
23229;BME280;11783;50.350;6.576;2023-05-14T13:03:20;96161.25;;;22.23;37.71